sensor_id;sensor_type;location;lat;lon;timestamp;P1;durP1;ratioP1;P2;durP2;ratioP2
19111;SDS011;9688;51.906;8.376;2022-12-31T00:02:30;1.50;;;1.40;;
19111;SDS011;9688;51.906;8.376;2022-12-31T00:05:16;1.30;;;1.30;;
19111;SDS011;9688;51.906;8.376;2022-12-31T00:08:02;1.60;;;1.50;;
19111;SDS011;9688;51.906;8.376;2022-12-31T00:10:47;1.50;;;1.40;;
19111;SDS011;9688;51.906;8.376;2022-12-31T00:13:33;1.20;;;1.20;;
19111;SDS011;9688;51.906;8.376;2022-12-31T00:16:19;1.27;;;1.27;;
19111;SDS011;9688;51.906;8.376;2022-12-31T00:19:08;2.17;;;1.30;;
19111;SDS011;9688;51.906;8.376;2022-12-31T00:21:55;1.20;;;1.20;;
19111;SDS011;9688;51.906;8.376;2022-12-31T00:24:41;1.17;;;1.17;;
19111;SDS011;9688;51.906;8.376;2022-12-31T00:27:28;1.30;;;1.07;;
19111;SDS011;9688;51.906;8.376;2022-12-31T00:30:14;1.17;;;1.17;;
19111;SDS011;9688;51.906;8.376;2022-12-31T00:33:00;1.43;;;1.07;;
19111;SDS011;9688;51.906;8.376;2022-12-31T00:35:47;1.37;;;1.37;;
19111;SDS011;9688;51.906;8.376;2022-12-31T00:38:33;1.00;;;1.00;;
19111;SDS011;9688;51.906;8.376;2022-12-31T00:41:19;1.00;;;1.00;;
19111;SDS011;9688;51.906;8.376;2022-12-31T00:44:06;1.50;;;1.13;;
19111;SDS011;9688;51.906;8.376;2022-12-31T00:46:52;1.27;;;0.90;;
19111;SDS011;9688;51.906;8.376;2022-12-31T00:49:37;1.00;;;1.00;;
19111;SDS011;9688;51.906;8.376;2022-12-31T00:52:24;1.33;;;1.00;;
19111;SDS011;9688;51.906;8.376;2022-12-31T00:55:10;1.00;;;1.00;;
19111;SDS011;9688;51.906;8.376;2022-12-31T00:57:56;1.23;;;0.93;;
19111;SDS011;9688;51.906;8.376;2022-12-31T01:00:41;1.10;;;1.00;;
19111;SDS011;9688;51.906;8.376;2022-12-31T01:03:27;1.17;;;1.03;;
19111;SDS011;9688;51.906;8.376;2022-12-31T01:06:13;1.33;;;1.27;;
19111;SDS011;9688;51.906;8.376;2022-12-31T01:09:01;1.10;;;1.10;;
19111;SDS011;9688;51.906;8.376;2022-12-31T01:11:48;1.00;;;1.00;;
19111;SDS011;9688;51.906;8.376;2022-12-31T01:14:35;1.20;;;1.20;;
19111;SDS011;9688;51.906;8.376;2022-12-31T01:17:21;1.20;;;1.20;;
19111;SDS011;9688;51.906;8.376;2022-12-31T01:20:07;2.13;;;1.20;;
19111;SDS011;9688;51.906;8.376;2022-12-31T01:22:53;2.13;;;1.30;;
19111;SDS011;9688;51.906;8.376;2022-12-31T01:25:40;1.37;;;1.37;;
19111;SDS011;9688;51.906;8.376;2022-12-31T01:28:27;1.40;;;1.30;;
19111;SDS011;9688;51.906;8.376;2022-12-31T01:31:13;1.30;;;1.20;;
19111;SDS011;9688;51.906;8.376;2022-12-31T01:34:01;1.10;;;1.10;;
19111;SDS011;9688;51.906;8.376;2022-12-31T01:36:46;1.20;;;1.20;;
19111;SDS011;9688;51.906;8.376;2022-12-31T01:39:32;0.90;;;0.90;;
19111;SDS011;9688;51.906;8.376;2022-12-31T01:42:19;1.00;;;1.00;;
19111;SDS011;9688;51.906;8.376;2022-12-31T01:45:09;1.00;;;1.00;;
19111;SDS011;9688;51.906;8.376;2022-12-31T01:47:56;1.07;;;1.07;;
19111;SDS011;9688;51.906;8.376;2022-12-31T01:50:43;1.07;;;1.00;;
19111;SDS011;9688;51.906;8.376;2022-12-31T01:53:31;0.87;;;0.80;;
19111;SDS011;9688;51.906;8.376;2022-12-31T01:56:17;0.90;;;0.90;;
19111;SDS011;9688;51.906;8.376;2022-12-31T01:59:06;1.50;;;0.90;;
19111;SDS011;9688;51.906;8.376;2022-12-31T02:01:54;0.60;;;0.60;;
19111;SDS011;9688;51.906;8.376;2022-12-31T02:04:40;0.80;;;0.80;;
19111;SDS011;9688;51.906;8.376;2022-12-31T02:07:26;0.90;;;0.90;;
19111;SDS011;9688;51.906;8.376;2022-12-31T02:10:11;0.80;;;0.80;;
19111;SDS011;9688;51.906;8.376;2022-12-31T02:12:59;0.80;;;0.80;;
19111;SDS011;9688;51.906;8.376;2022-12-31T02:15:52;0.60;;;0.60;;
19111;SDS011;9688;51.906;8.376;2022-12-31T02:18:46;0.60;;;0.60;;
19111;SDS011;9688;51.906;8.376;2022-12-31T02:21:50;1.50;;;0.80;;
19111;SDS011;9688;51.906;8.376;2022-12-31T02:28:10;2.00;;;0.80;;
19111;SDS011;9688;51.906;8.376;2022-12-31T02:31:06;0.73;;;0.73;;
19111;SDS011;9688;51.906;8.376;2022-12-31T02:33:56;0.90;;;0.90;;
19111;SDS011;9688;51.906;8.376;2022-12-31T02:36:46;1.33;;;1.30;;
19111;SDS011;9688;51.906;8.376;2022-12-31T02:39:35;0.80;;;0.80;;
19111;SDS011;9688;51.906;8.376;2022-12-31T02:42:21;1.00;;;1.00;;
19111;SDS011;9688;51.906;8.376;2022-12-31T02:45:07;2.30;;;1.07;;
19111;SDS011;9688;51.906;8.376;2022-12-31T02:48:01;0.90;;;0.90;;
19111;SDS011;9688;51.906;8.376;2022-12-31T02:51:07;1.13;;;0.97;;
19111;SDS011;9688;51.906;8.376;2022-12-31T02:54:11;1.53;;;1.10;;
19111;SDS011;9688;51.906;8.376;2022-12-31T02:57:05;1.60;;;1.03;;
19111;SDS011;9688;51.906;8.376;2022-12-31T03:00:00;0.90;;;0.90;;
19111;SDS011;9688;51.906;8.376;2022-12-31T03:03:07;0.80;;;0.80;;
19111;SDS011;9688;51.906;8.376;2022-12-31T03:05:54;0.60;;;0.60;;
19111;SDS011;9688;51.906;8.376;2022-12-31T03:08:41;0.50;;;0.50;;
19111;SDS011;9688;51.906;8.376;2022-12-31T03:11:40;0.70;;;0.70;;
19111;SDS011;9688;51.906;8.376;2022-12-31T03:14:43;0.63;;;0.63;;
19111;SDS011;9688;51.906;8.376;2022-12-31T03:17:29;0.80;;;0.80;;
19111;SDS011;9688;51.906;8.376;2022-12-31T03:20:16;2.40;;;0.70;;
19111;SDS011;9688;51.906;8.376;2022-12-31T03:23:21;0.40;;;0.40;;
19111;SDS011;9688;51.906;8.376;2022-12-31T03:26:09;0.60;;;0.50;;
19111;SDS011;9688;51.906;8.376;2022-12-31T03:28:55;0.83;;;0.43;;
19111;SDS011;9688;51.906;8.376;2022-12-31T03:31:40;0.50;;;0.50;;
19111;SDS011;9688;51.906;8.376;2022-12-31T03:34:26;0.60;;;0.60;;
19111;SDS011;9688;51.906;8.376;2022-12-31T03:37:13;0.30;;;0.30;;
19111;SDS011;9688;51.906;8.376;2022-12-31T03:39:58;0.37;;;0.37;;
19111;SDS011;9688;51.906;8.376;2022-12-31T03:42:44;0.40;;;0.40;;
19111;SDS011;9688;51.906;8.376;2022-12-31T03:45:30;1.90;;;0.40;;
19111;SDS011;9688;51.906;8.376;2022-12-31T03:48:17;0.30;;;0.30;;
19111;SDS011;9688;51.906;8.376;2022-12-31T03:51:03;0.40;;;0.40;;
19111;SDS011;9688;51.906;8.376;2022-12-31T03:53:50;0.40;;;0.40;;
19111;SDS011;9688;51.906;8.376;2022-12-31T03:56:35;0.30;;;0.30;;
19111;SDS011;9688;51.906;8.376;2022-12-31T03:59:21;0.40;;;0.40;;
19111;SDS011;9688;51.906;8.376;2022-12-31T04:02:06;1.60;;;0.40;;
19111;SDS011;9688;51.906;8.376;2022-12-31T04:04:52;0.20;;;0.20;;
19111;SDS011;9688;51.906;8.376;2022-12-31T04:07:37;0.20;;;0.20;;
19111;SDS011;9688;51.906;8.376;2022-12-31T04:10:24;1.30;;;0.40;;
19111;SDS011;9688;51.906;8.376;2022-12-31T04:13:10;0.40;;;0.40;;
19111;SDS011;9688;51.906;8.376;2022-12-31T04:15:55;0.40;;;0.40;;
19111;SDS011;9688;51.906;8.376;2022-12-31T04:18:41;0.60;;;0.60;;
19111;SDS011;9688;51.906;8.376;2022-12-31T04:21:26;1.63;;;0.77;;
19111;SDS011;9688;51.906;8.376;2022-12-31T04:24:12;1.07;;;0.50;;
19111;SDS011;9688;51.906;8.376;2022-12-31T04:26:59;0.80;;;0.80;;
19111;SDS011;9688;51.906;8.376;2022-12-31T04:29:45;1.60;;;1.00;;
19111;SDS011;9688;51.906;8.376;2022-12-31T04:32:30;1.23;;;0.60;;
19111;SDS011;9688;51.906;8.376;2022-12-31T04:35:16;1.63;;;0.60;;
19111;SDS011;9688;51.906;8.376;2022-12-31T04:38:01;0.60;;;0.60;;
19111;SDS011;9688;51.906;8.376;2022-12-31T04:40:47;0.47;;;0.47;;
19111;SDS011;9688;51.906;8.376;2022-12-31T04:43:52;0.50;;;0.50;;
19111;SDS011;9688;51.906;8.376;2022-12-31T04:46:39;0.40;;;0.40;;
19111;SDS011;9688;51.906;8.376;2022-12-31T04:49:25;1.00;;;0.60;;
19111;SDS011;9688;51.906;8.376;2022-12-31T04:52:10;0.60;;;0.60;;
19111;SDS011;9688;51.906;8.376;2022-12-31T04:54:56;1.13;;;0.57;;
19111;SDS011;9688;51.906;8.376;2022-12-31T04:57:42;0.40;;;0.40;;
19111;SDS011;9688;51.906;8.376;2022-12-31T05:00:28;0.50;;;0.50;;
19111;SDS011;9688;51.906;8.376;2022-12-31T05:03:14;0.60;;;0.60;;
19111;SDS011;9688;51.906;8.376;2022-12-31T05:06:00;0.60;;;0.60;;
19111;SDS011;9688;51.906;8.376;2022-12-31T05:08:46;1.77;;;0.80;;
19111;SDS011;9688;51.906;8.376;2022-12-31T05:11:32;1.00;;;1.00;;
19111;SDS011;9688;51.906;8.376;2022-12-31T05:14:18;1.03;;;0.80;;
19111;SDS011;9688;51.906;8.376;2022-12-31T05:17:05;0.90;;;0.90;;
19111;SDS011;9688;51.906;8.376;2022-12-31T05:19:51;1.70;;;0.80;;
19111;SDS011;9688;51.906;8.376;2022-12-31T05:22:36;1.70;;;1.13;;
19111;SDS011;9688;51.906;8.376;2022-12-31T05:25:22;1.33;;;1.23;;
19111;SDS011;9688;51.906;8.376;2022-12-31T05:28:08;1.50;;;1.30;;
19111;SDS011;9688;51.906;8.376;2022-12-31T05:30:53;2.17;;;1.13;;
19111;SDS011;9688;51.906;8.376;2022-12-31T05:33:41;2.30;;;1.20;;
19111;SDS011;9688;51.906;8.376;2022-12-31T05:36:27;1.60;;;1.20;;
19111;SDS011;9688;51.906;8.376;2022-12-31T05:39:12;1.00;;;1.00;;
19111;SDS011;9688;51.906;8.376;2022-12-31T05:41:58;1.20;;;1.20;;
19111;SDS011;9688;51.906;8.376;2022-12-31T05:44:44;1.20;;;1.00;;
19111;SDS011;9688;51.906;8.376;2022-12-31T05:47:29;1.17;;;1.10;;
19111;SDS011;9688;51.906;8.376;2022-12-31T05:50:17;1.53;;;0.90;;
19111;SDS011;9688;51.906;8.376;2022-12-31T05:53:03;1.87;;;1.10;;
19111;SDS011;9688;51.906;8.376;2022-12-31T05:55:48;0.80;;;0.80;;
19111;SDS011;9688;51.906;8.376;2022-12-31T05:58:34;0.70;;;0.70;;
19111;SDS011;9688;51.906;8.376;2022-12-31T06:01:19;1.63;;;1.30;;
19111;SDS011;9688;51.906;8.376;2022-12-31T06:04:05;0.70;;;0.70;;
19111;SDS011;9688;51.906;8.376;2022-12-31T06:06:52;0.50;;;0.50;;
19111;SDS011;9688;51.906;8.376;2022-12-31T06:09:37;1.40;;;0.50;;
19111;SDS011;9688;51.906;8.376;2022-12-31T06:12:23;0.40;;;0.40;;
19111;SDS011;9688;51.906;8.376;2022-12-31T06:15:08;0.50;;;0.50;;
19111;SDS011;9688;51.906;8.376;2022-12-31T06:17:54;0.70;;;0.70;;
19111;SDS011;9688;51.906;8.376;2022-12-31T06:20:40;0.40;;;0.40;;
19111;SDS011;9688;51.906;8.376;2022-12-31T06:23:27;0.63;;;0.63;;
19111;SDS011;9688;51.906;8.376;2022-12-31T06:26:12;1.03;;;0.50;;
19111;SDS011;9688;51.906;8.376;2022-12-31T06:29:01;0.50;;;0.50;;
19111;SDS011;9688;51.906;8.376;2022-12-31T06:31:50;0.50;;;0.50;;
19111;SDS011;9688;51.906;8.376;2022-12-31T06:34:36;0.40;;;0.40;;
19111;SDS011;9688;51.906;8.376;2022-12-31T06:37:21;0.50;;;0.50;;
19111;SDS011;9688;51.906;8.376;2022-12-31T06:40:09;1.07;;;0.40;;
19111;SDS011;9688;51.906;8.376;2022-12-31T06:42:55;0.57;;;0.50;;
19111;SDS011;9688;51.906;8.376;2022-12-31T06:45:41;4.47;;;0.60;;
19111;SDS011;9688;51.906;8.376;2022-12-31T06:48:27;1.33;;;0.53;;
19111;SDS011;9688;51.906;8.376;2022-12-31T06:51:12;1.07;;;0.87;;
19111;SDS011;9688;51.906;8.376;2022-12-31T06:54:00;0.53;;;0.53;;
19111;SDS011;9688;51.906;8.376;2022-12-31T06:56:48;1.53;;;0.77;;
19111;SDS011;9688;51.906;8.376;2022-12-31T06:59:34;0.50;;;0.50;;
19111;SDS011;9688;51.906;8.376;2022-12-31T07:02:23;0.40;;;0.40;;
19111;SDS011;9688;51.906;8.376;2022-12-31T07:05:33;0.50;;;0.50;;
19111;SDS011;9688;51.906;8.376;2022-12-31T07:08:30;0.60;;;0.60;;
19111;SDS011;9688;51.906;8.376;2022-12-31T07:11:25;0.33;;;0.33;;
19111;SDS011;9688;51.906;8.376;2022-12-31T07:14:19;0.83;;;0.67;;
19111;SDS011;9688;51.906;8.376;2022-12-31T07:17:15;2.90;;;0.67;;
19111;SDS011;9688;51.906;8.376;2022-12-31T07:20:11;2.87;;;0.73;;
19111;SDS011;9688;51.906;8.376;2022-12-31T07:23:00;0.60;;;0.40;;
19111;SDS011;9688;51.906;8.376;2022-12-31T07:25:49;1.23;;;0.67;;
19111;SDS011;9688;51.906;8.376;2022-12-31T07:28:41;2.10;;;0.67;;
19111;SDS011;9688;51.906;8.376;2022-12-31T07:31:43;1.43;;;1.13;;
19111;SDS011;9688;51.906;8.376;2022-12-31T07:34:40;2.80;;;1.10;;
19111;SDS011;9688;51.906;8.376;2022-12-31T07:37:35;1.40;;;0.87;;
19111;SDS011;9688;51.906;8.376;2022-12-31T07:40:29;1.60;;;0.87;;
19111;SDS011;9688;51.906;8.376;2022-12-31T07:43:25;1.73;;;0.70;;
19111;SDS011;9688;51.906;8.376;2022-12-31T07:46:18;1.83;;;0.70;;
19111;SDS011;9688;51.906;8.376;2022-12-31T07:49:11;0.50;;;0.50;;
19111;SDS011;9688;51.906;8.376;2022-12-31T07:51:58;2.20;;;0.70;;
19111;SDS011;9688;51.906;8.376;2022-12-31T07:54:43;1.17;;;0.73;;
19111;SDS011;9688;51.906;8.376;2022-12-31T07:57:30;2.03;;;0.77;;
19111;SDS011;9688;51.906;8.376;2022-12-31T08:00:23;4.23;;;0.80;;
19111;SDS011;9688;51.906;8.376;2022-12-31T08:03:12;2.00;;;0.83;;
19111;SDS011;9688;51.906;8.376;2022-12-31T08:06:16;1.57;;;0.63;;
19111;SDS011;9688;51.906;8.376;2022-12-31T08:09:11;1.00;;;0.60;;
19111;SDS011;9688;51.906;8.376;2022-12-31T08:12:20;1.03;;;0.70;;
19111;SDS011;9688;51.906;8.376;2022-12-31T08:15:11;1.00;;;0.77;;
19111;SDS011;9688;51.906;8.376;2022-12-31T08:17:58;2.47;;;0.80;;
19111;SDS011;9688;51.906;8.376;2022-12-31T08:20:45;2.73;;;0.90;;
19111;SDS011;9688;51.906;8.376;2022-12-31T08:23:40;1.63;;;0.70;;
19111;SDS011;9688;51.906;8.376;2022-12-31T08:26:34;1.20;;;0.73;;
19111;SDS011;9688;51.906;8.376;2022-12-31T08:29:25;1.53;;;0.80;;
19111;SDS011;9688;51.906;8.376;2022-12-31T08:32:19;1.30;;;0.90;;
19111;SDS011;9688;51.906;8.376;2022-12-31T08:35:12;1.00;;;0.83;;
19111;SDS011;9688;51.906;8.376;2022-12-31T08:38:09;1.23;;;0.57;;
19111;SDS011;9688;51.906;8.376;2022-12-31T08:41:06;1.60;;;0.70;;
19111;SDS011;9688;51.906;8.376;2022-12-31T08:44:00;4.10;;;0.80;;
19111;SDS011;9688;51.906;8.376;2022-12-31T08:46:52;1.97;;;0.90;;
19111;SDS011;9688;51.906;8.376;2022-12-31T08:49:44;3.13;;;1.03;;
19111;SDS011;9688;51.906;8.376;2022-12-31T08:52:30;0.70;;;0.70;;
19111;SDS011;9688;51.906;8.376;2022-12-31T08:55:16;5.73;;;1.10;;
19111;SDS011;9688;51.906;8.376;2022-12-31T08:58:09;1.07;;;0.70;;
19111;SDS011;9688;51.906;8.376;2022-12-31T09:01:06;1.30;;;0.80;;
19111;SDS011;9688;51.906;8.376;2022-12-31T09:03:56;1.40;;;0.73;;
19111;SDS011;9688;51.906;8.376;2022-12-31T09:06:53;1.13;;;0.70;;
19111;SDS011;9688;51.906;8.376;2022-12-31T09:09:44;3.17;;;1.00;;
19111;SDS011;9688;51.906;8.376;2022-12-31T09:12:41;0.90;;;0.43;;
19111;SDS011;9688;51.906;8.376;2022-12-31T09:15:40;2.67;;;0.97;;
19111;SDS011;9688;51.906;8.376;2022-12-31T09:18:28;1.33;;;0.90;;
19111;SDS011;9688;51.906;8.376;2022-12-31T09:21:18;1.07;;;0.70;;
19111;SDS011;9688;51.906;8.376;2022-12-31T09:24:04;2.63;;;0.80;;
19111;SDS011;9688;51.906;8.376;2022-12-31T09:26:54;2.70;;;1.00;;
19111;SDS011;9688;51.906;8.376;2022-12-31T09:29:48;1.17;;;1.10;;
19111;SDS011;9688;51.906;8.376;2022-12-31T09:32:45;1.70;;;0.70;;
19111;SDS011;9688;51.906;8.376;2022-12-31T09:35:40;0.73;;;0.70;;
19111;SDS011;9688;51.906;8.376;2022-12-31T09:38:34;1.63;;;0.87;;
19111;SDS011;9688;51.906;8.376;2022-12-31T09:41:32;1.00;;;0.80;;
19111;SDS011;9688;51.906;8.376;2022-12-31T09:44:59;1.90;;;0.50;;
19111;SDS011;9688;51.906;8.376;2022-12-31T09:48:23;1.23;;;0.63;;
19111;SDS011;9688;51.906;8.376;2022-12-31T09:51:33;2.50;;;0.83;;
19111;SDS011;9688;51.906;8.376;2022-12-31T09:54:32;1.77;;;0.67;;
19111;SDS011;9688;51.906;8.376;2022-12-31T09:57:38;2.27;;;0.70;;
19111;SDS011;9688;51.906;8.376;2022-12-31T10:00:28;0.87;;;0.57;;
19111;SDS011;9688;51.906;8.376;2022-12-31T10:03:31;0.60;;;0.60;;
19111;SDS011;9688;51.906;8.376;2022-12-31T10:06:29;1.63;;;0.77;;
19111;SDS011;9688;51.906;8.376;2022-12-31T10:09:29;1.03;;;0.40;;
19111;SDS011;9688;51.906;8.376;2022-12-31T10:12:29;0.93;;;0.70;;
19111;SDS011;9688;51.906;8.376;2022-12-31T10:15:45;1.07;;;0.60;;
19111;SDS011;9688;51.906;8.376;2022-12-31T10:19:03;2.63;;;0.60;;
19111;SDS011;9688;51.906;8.376;2022-12-31T10:22:22;0.53;;;0.50;;
19111;SDS011;9688;51.906;8.376;2022-12-31T10:25:35;1.43;;;0.70;;
19111;SDS011;9688;51.906;8.376;2022-12-31T10:28:36;1.00;;;0.60;;
19111;SDS011;9688;51.906;8.376;2022-12-31T10:31:38;1.83;;;1.63;;
19111;SDS011;9688;51.906;8.376;2022-12-31T10:34:33;2.77;;;0.83;;
19111;SDS011;9688;51.906;8.376;2022-12-31T10:37:33;1.43;;;1.27;;
19111;SDS011;9688;51.906;8.376;2022-12-31T10:40:30;1.43;;;0.80;;
19111;SDS011;9688;51.906;8.376;2022-12-31T10:51:08;1.10;;;1.10;;
19111;SDS011;9688;51.906;8.376;2022-12-31T10:54:18;2.73;;;0.90;;
19111;SDS011;9688;51.906;8.376;2022-12-31T11:01:01;1.50;;;1.00;;
19111;SDS011;9688;51.906;8.376;2022-12-31T11:04:02;2.80;;;1.30;;
19111;SDS011;9688;51.906;8.376;2022-12-31T11:17:26;0.80;;;0.60;;
19111;SDS011;9688;51.906;8.376;2022-12-31T11:20:27;2.03;;;1.40;;
19111;SDS011;9688;51.906;8.376;2022-12-31T11:23:32;2.40;;;0.80;;
19111;SDS011;9688;51.906;8.376;2022-12-31T11:26:30;1.53;;;0.90;;
19111;SDS011;9688;51.906;8.376;2022-12-31T11:29:32;1.43;;;0.90;;
19111;SDS011;9688;51.906;8.376;2022-12-31T11:32:38;3.30;;;1.50;;
19111;SDS011;9688;51.906;8.376;2022-12-31T11:35:37;3.20;;;1.43;;
19111;SDS011;9688;51.906;8.376;2022-12-31T11:38:32;1.97;;;1.10;;
19111;SDS011;9688;51.906;8.376;2022-12-31T11:41:27;1.50;;;0.90;;
19111;SDS011;9688;51.906;8.376;2022-12-31T11:44:31;1.33;;;1.20;;
19111;SDS011;9688;51.906;8.376;2022-12-31T11:47:30;3.97;;;1.23;;
19111;SDS011;9688;51.906;8.376;2022-12-31T11:50:30;6.10;;;1.00;;
19111;SDS011;9688;51.906;8.376;2022-12-31T11:53:35;2.57;;;0.80;;
19111;SDS011;9688;51.906;8.376;2022-12-31T11:56:34;1.37;;;0.90;;
19111;SDS011;9688;51.906;8.376;2022-12-31T11:59:24;2.63;;;0.97;;
19111;SDS011;9688;51.906;8.376;2022-12-31T12:02:17;2.53;;;0.80;;
19111;SDS011;9688;51.906;8.376;2022-12-31T12:05:08;3.23;;;1.27;;
19111;SDS011;9688;51.906;8.376;2022-12-31T12:07:58;3.13;;;1.10;;
19111;SDS011;9688;51.906;8.376;2022-12-31T12:10:45;3.57;;;1.30;;
19111;SDS011;9688;51.906;8.376;2022-12-31T12:13:32;2.13;;;1.07;;
19111;SDS011;9688;51.906;8.376;2022-12-31T12:16:19;2.10;;;0.97;;
19111;SDS011;9688;51.906;8.376;2022-12-31T12:19:07;2.33;;;1.10;;
19111;SDS011;9688;51.906;8.376;2022-12-31T12:22:08;1.67;;;1.07;;
19111;SDS011;9688;51.906;8.376;2022-12-31T12:24:56;1.70;;;1.10;;
19111;SDS011;9688;51.906;8.376;2022-12-31T12:27:50;1.53;;;1.23;;
19111;SDS011;9688;51.906;8.376;2022-12-31T12:30:38;5.60;;;2.20;;
19111;SDS011;9688;51.906;8.376;2022-12-31T12:33:27;2.00;;;1.40;;
19111;SDS011;9688;51.906;8.376;2022-12-31T12:36:14;3.37;;;1.80;;
19111;SDS011;9688;51.906;8.376;2022-12-31T12:39:02;2.00;;;1.50;;
19111;SDS011;9688;51.906;8.376;2022-12-31T12:45:02;2.53;;;1.40;;
19111;SDS011;9688;51.906;8.376;2022-12-31T12:47:53;1.00;;;1.00;;
19111;SDS011;9688;51.906;8.376;2022-12-31T12:50:42;2.43;;;1.20;;
19111;SDS011;9688;51.906;8.376;2022-12-31T12:53:35;1.80;;;1.10;;
19111;SDS011;9688;51.906;8.376;2022-12-31T12:56:33;4.37;;;1.20;;
19111;SDS011;9688;51.906;8.376;2022-12-31T13:02:48;2.73;;;1.30;;
19111;SDS011;9688;51.906;8.376;2022-12-31T13:05:56;5.63;;;1.20;;
19111;SDS011;9688;51.906;8.376;2022-12-31T13:09:02;1.73;;;1.27;;
19111;SDS011;9688;51.906;8.376;2022-12-31T13:12:08;4.00;;;1.30;;
19111;SDS011;9688;51.906;8.376;2022-12-31T13:15:02;3.60;;;1.50;;
19111;SDS011;9688;51.906;8.376;2022-12-31T13:17:59;3.70;;;1.30;;
19111;SDS011;9688;51.906;8.376;2022-12-31T13:20:55;2.50;;;1.10;;
19111;SDS011;9688;51.906;8.376;2022-12-31T13:23:47;2.73;;;1.60;;
19111;SDS011;9688;51.906;8.376;2022-12-31T13:26:43;5.17;;;1.27;;
19111;SDS011;9688;51.906;8.376;2022-12-31T13:29:36;1.73;;;1.10;;
19111;SDS011;9688;51.906;8.376;2022-12-31T13:32:32;2.87;;;1.10;;
19111;SDS011;9688;51.906;8.376;2022-12-31T13:35:25;3.47;;;1.13;;
19111;SDS011;9688;51.906;8.376;2022-12-31T13:38:14;3.20;;;0.90;;
19111;SDS011;9688;51.906;8.376;2022-12-31T13:41:07;1.73;;;1.00;;
19111;SDS011;9688;51.906;8.376;2022-12-31T13:43:59;2.73;;;1.23;;
19111;SDS011;9688;51.906;8.376;2022-12-31T13:46:54;4.37;;;1.20;;
19111;SDS011;9688;51.906;8.376;2022-12-31T13:49:45;4.30;;;1.20;;
19111;SDS011;9688;51.906;8.376;2022-12-31T13:52:36;2.17;;;1.10;;
19111;SDS011;9688;51.906;8.376;2022-12-31T13:55:27;3.20;;;1.20;;
19111;SDS011;9688;51.906;8.376;2022-12-31T13:58:19;7.87;;;1.37;;
19111;SDS011;9688;51.906;8.376;2022-12-31T14:01:15;1.63;;;1.10;;
19111;SDS011;9688;51.906;8.376;2022-12-31T14:04:06;1.90;;;1.00;;
19111;SDS011;9688;51.906;8.376;2022-12-31T14:06:58;3.87;;;1.63;;
19111;SDS011;9688;51.906;8.376;2022-12-31T14:09:49;2.07;;;1.23;;
19111;SDS011;9688;51.906;8.376;2022-12-31T14:12:37;3.03;;;1.47;;
19111;SDS011;9688;51.906;8.376;2022-12-31T14:15:32;3.13;;;1.37;;
19111;SDS011;9688;51.906;8.376;2022-12-31T14:18:25;1.63;;;1.23;;
19111;SDS011;9688;51.906;8.376;2022-12-31T14:21:18;2.50;;;1.30;;
19111;SDS011;9688;51.906;8.376;2022-12-31T14:24:12;1.93;;;1.10;;
19111;SDS011;9688;51.906;8.376;2022-12-31T14:27:06;2.23;;;1.33;;
19111;SDS011;9688;51.906;8.376;2022-12-31T14:29:57;1.43;;;1.30;;
19111;SDS011;9688;51.906;8.376;2022-12-31T14:32:53;4.77;;;1.10;;
19111;SDS011;9688;51.906;8.376;2022-12-31T14:35:59;1.60;;;1.20;;
19111;SDS011;9688;51.906;8.376;2022-12-31T14:38:59;5.23;;;1.60;;
19111;SDS011;9688;51.906;8.376;2022-12-31T14:42:02;5.13;;;1.60;;
19111;SDS011;9688;51.906;8.376;2022-12-31T14:45:13;2.63;;;1.23;;
19111;SDS011;9688;51.906;8.376;2022-12-31T14:48:09;2.67;;;1.50;;
19111;SDS011;9688;51.906;8.376;2022-12-31T14:51:08;2.20;;;1.40;;
19111;SDS011;9688;51.906;8.376;2022-12-31T14:53:56;3.17;;;1.40;;
19111;SDS011;9688;51.906;8.376;2022-12-31T14:56:43;3.60;;;1.83;;
19111;SDS011;9688;51.906;8.376;2022-12-31T14:59:30;2.70;;;1.50;;
19111;SDS011;9688;51.906;8.376;2022-12-31T15:02:24;4.77;;;1.70;;
19111;SDS011;9688;51.906;8.376;2022-12-31T15:05:14;5.37;;;1.83;;
19111;SDS011;9688;51.906;8.376;2022-12-31T15:08:10;5.97;;;3.17;;
19111;SDS011;9688;51.906;8.376;2022-12-31T15:11:13;5.90;;;1.83;;
19111;SDS011;9688;51.906;8.376;2022-12-31T15:14:23;2.33;;;1.80;;
19111;SDS011;9688;51.906;8.376;2022-12-31T15:17:31;5.37;;;1.60;;
19111;SDS011;9688;51.906;8.376;2022-12-31T15:23:57;2.43;;;1.40;;
19111;SDS011;9688;51.906;8.376;2022-12-31T15:26:46;8.47;;;1.70;;
19111;SDS011;9688;51.906;8.376;2022-12-31T15:29:34;5.27;;;1.70;;
19111;SDS011;9688;51.906;8.376;2022-12-31T15:32:33;3.37;;;2.10;;
19111;SDS011;9688;51.906;8.376;2022-12-31T15:35:24;4.57;;;2.10;;
19111;SDS011;9688;51.906;8.376;2022-12-31T15:38:17;5.10;;;2.23;;
19111;SDS011;9688;51.906;8.376;2022-12-31T15:41:15;2.50;;;1.90;;
19111;SDS011;9688;51.906;8.376;2022-12-31T15:44:12;3.07;;;1.70;;
19111;SDS011;9688;51.906;8.376;2022-12-31T15:47:07;3.50;;;1.70;;
19111;SDS011;9688;51.906;8.376;2022-12-31T15:50:11;4.37;;;2.87;;
19111;SDS011;9688;51.906;8.376;2022-12-31T15:53:01;3.07;;;1.50;;
19111;SDS011;9688;51.906;8.376;2022-12-31T15:55:48;5.63;;;1.90;;
19111;SDS011;9688;51.906;8.376;2022-12-31T15:58:36;7.10;;;1.60;;
19111;SDS011;9688;51.906;8.376;2022-12-31T16:01:23;5.30;;;1.50;;
19111;SDS011;9688;51.906;8.376;2022-12-31T16:04:13;4.67;;;1.57;;
19111;SDS011;9688;51.906;8.376;2022-12-31T16:07:03;4.77;;;1.80;;
19111;SDS011;9688;51.906;8.376;2022-12-31T16:09:50;2.00;;;1.63;;
19111;SDS011;9688;51.906;8.376;2022-12-31T16:12:37;4.73;;;1.70;;
19111;SDS011;9688;51.906;8.376;2022-12-31T16:15:24;2.53;;;1.47;;
19111;SDS011;9688;51.906;8.376;2022-12-31T16:18:12;4.33;;;2.00;;
19111;SDS011;9688;51.906;8.376;2022-12-31T16:20:58;4.60;;;2.00;;
19111;SDS011;9688;51.906;8.376;2022-12-31T16:23:49;6.67;;;2.57;;
19111;SDS011;9688;51.906;8.376;2022-12-31T16:26:48;4.97;;;1.87;;
19111;SDS011;9688;51.906;8.376;2022-12-31T16:29:36;5.27;;;1.93;;
19111;SDS011;9688;51.906;8.376;2022-12-31T16:32:32;6.73;;;2.30;;
19111;SDS011;9688;51.906;8.376;2022-12-31T16:35:19;2.47;;;2.27;;
19111;SDS011;9688;51.906;8.376;2022-12-31T16:38:11;4.53;;;1.93;;
19111;SDS011;9688;51.906;8.376;2022-12-31T16:41:13;5.43;;;2.17;;
19111;SDS011;9688;51.906;8.376;2022-12-31T16:44:01;2.63;;;1.93;;
19111;SDS011;9688;51.906;8.376;2022-12-31T16:46:47;4.40;;;2.47;;
19111;SDS011;9688;51.906;8.376;2022-12-31T16:49:36;7.83;;;2.87;;
19111;SDS011;9688;51.906;8.376;2022-12-31T16:52:26;7.53;;;3.33;;
19111;SDS011;9688;51.906;8.376;2022-12-31T16:55:16;5.90;;;2.70;;
19111;SDS011;9688;51.906;8.376;2022-12-31T16:58:09;3.67;;;2.70;;
19111;SDS011;9688;51.906;8.376;2022-12-31T17:01:06;3.83;;;2.10;;
19111;SDS011;9688;51.906;8.376;2022-12-31T17:03:57;3.70;;;2.57;;
19111;SDS011;9688;51.906;8.376;2022-12-31T17:06:44;4.73;;;2.73;;
19111;SDS011;9688;51.906;8.376;2022-12-31T17:09:32;3.47;;;2.00;;
19111;SDS011;9688;51.906;8.376;2022-12-31T17:12:21;3.90;;;2.20;;
19111;SDS011;9688;51.906;8.376;2022-12-31T17:15:17;3.07;;;1.97;;
19111;SDS011;9688;51.906;8.376;2022-12-31T17:18:04;4.00;;;2.30;;
19111;SDS011;9688;51.906;8.376;2022-12-31T17:20:52;5.33;;;2.60;;
19111;SDS011;9688;51.906;8.376;2022-12-31T17:23:39;5.20;;;2.93;;
19111;SDS011;9688;51.906;8.376;2022-12-31T17:26:27;5.73;;;2.10;;
19111;SDS011;9688;51.906;8.376;2022-12-31T17:29:16;5.00;;;2.40;;
19111;SDS011;9688;51.906;8.376;2022-12-31T17:32:06;3.70;;;2.40;;
19111;SDS011;9688;51.906;8.376;2022-12-31T17:35:25;5.27;;;2.63;;
19111;SDS011;9688;51.906;8.376;2022-12-31T17:41:23;6.37;;;2.50;;
19111;SDS011;9688;51.906;8.376;2022-12-31T17:44:11;3.90;;;2.30;;
19111;SDS011;9688;51.906;8.376;2022-12-31T17:47:01;4.10;;;2.20;;
19111;SDS011;9688;51.906;8.376;2022-12-31T17:49:50;3.87;;;2.30;;
19111;SDS011;9688;51.906;8.376;2022-12-31T17:52:39;2.83;;;1.83;;
19111;SDS011;9688;51.906;8.376;2022-12-31T17:55:24;5.27;;;2.17;;
19111;SDS011;9688;51.906;8.376;2022-12-31T17:58:13;3.87;;;2.00;;
19111;SDS011;9688;51.906;8.376;2022-12-31T18:01:03;4.13;;;1.80;;
19111;SDS011;9688;51.906;8.376;2022-12-31T18:03:50;3.23;;;2.10;;
19111;SDS011;9688;51.906;8.376;2022-12-31T18:06:40;5.13;;;2.00;;
19111;SDS011;9688;51.906;8.376;2022-12-31T18:09:27;4.03;;;1.93;;